createdAt,value
2023-10-18T00:11:53.570Z,6.59165
2023-10-18T00:26:55.653Z,5.64998
2023-10-18T00:41:57.633Z,1.88333
2023-10-18T00:56:59.655Z,0
2023-10-18T01:12:01.775Z,0
2023-10-18T01:27:03.826Z,0
2023-10-18T01:42:05.874Z,0
2023-10-18T01:57:07.958Z,0
2023-10-18T02:12:10.080Z,0
2023-10-18T02:27:12.130Z,0
2023-10-18T02:42:14.168Z,0
2023-10-18T02:57:16.143Z,0
2023-10-18T03:12:18.241Z,0
2023-10-18T03:27:20.298Z,0
2023-10-18T03:42:22.450Z,0
2023-10-18T03:57:24.623Z,0
2023-10-18T04:12:26.616Z,0
2023-10-18T04:27:28.632Z,0
2023-10-18T04:42:30.740Z,0
2023-10-18T04:57:32.721Z,0
2023-10-18T05:12:34.750Z,0
2023-10-18T05:27:36.814Z,0
2023-10-18T05:42:38.847Z,0
2023-10-18T05:57:40.856Z,0
2023-10-18T06:12:42.856Z,0
2023-10-18T06:27:44.930Z,0
2023-10-18T06:42:47.027Z,0
2023-10-18T06:57:49.053Z,0
2023-10-18T07:12:51.148Z,0
2023-10-18T07:27:53.166Z,0
2023-10-18T07:42:55.261Z,0
2023-10-18T07:57:57.380Z,0
2023-10-18T08:12:59.521Z,0
2023-10-18T08:28:01.654Z,0
2023-10-18T08:43:03.746Z,0
2023-10-18T08:58:05.830Z,0
2023-10-18T09:13:07.956Z,0
2023-10-18T09:28:10.243Z,0
2023-10-18T09:43:12.330Z,0
2023-10-18T09:58:14.377Z,0
2023-10-18T10:13:16.450Z,0
2023-10-18T10:28:18.605Z,0
2023-10-18T10:43:20.830Z,0
2023-10-18T10:58:23.071Z,0
2023-10-18T11:13:25.215Z,0
2023-10-18T11:28:27.262Z,0
2023-10-18T11:43:29.430Z,0
2023-10-18T11:58:31.531Z,0
2023-10-18T12:13:33.627Z,0
2023-10-18T12:28:35.637Z,0
2023-10-18T12:43:37.713Z,0
2023-10-18T12:58:39.734Z,0
2023-10-18T13:13:41.730Z,0
2023-10-18T13:28:43.761Z,0
2023-10-18T13:43:45.787Z,0
2023-10-18T13:58:47.788Z,0
2023-10-18T14:13:49.803Z,0
2023-10-18T14:28:51.854Z,0.94166
2023-10-18T14:43:53.828Z,3.76666
2023-10-18T14:58:56.316Z,6.59165
2023-10-18T15:13:58.680Z,12.24163
2023-10-18T15:29:00.637Z,7.53331
2023-10-18T15:44:02.704Z,15.06662
2023-10-18T15:59:04.779Z,26.36659
2023-10-18T16:14:07.078Z,11.29997
2023-10-18T16:29:09.170Z,13.1833
2023-10-18T16:44:11.360Z,14.12496
2023-10-18T16:59:13.409Z,13.1833
2023-10-18T17:14:15.588Z,11.29997
2023-10-18T17:29:17.697Z,15.06662
2023-10-18T17:44:20.047Z,15.06662
2023-10-18T17:59:22.160Z,11.29997
2023-10-18T18:14:24.301Z,14.12496
2023-10-18T18:29:26.405Z,19.77494
2023-10-18T18:44:28.496Z,21.65827
2023-10-18T18:59:30.792Z,26.36659
2023-10-18T19:14:33.094Z,30.13325
2023-10-18T19:29:35.117Z,32.01657
2023-10-18T19:44:37.218Z,39.54988
2023-10-18T19:59:39.492Z,32.95824
2023-10-18T20:14:41.724Z,38.60822
2023-10-18T20:29:43.808Z,28.24992
2023-10-18T20:44:45.994Z,24.48326
2023-10-18T20:59:48.051Z,37.66656
2023-10-18T21:14:50.475Z,67.7998
2023-10-18T21:29:52.622Z,80.04144
2023-10-18T21:44:54.644Z,64.03315
2023-10-18T21:59:56.690Z,199.63275
2023-10-18T22:14:58.679Z,164.79118
2023-10-18T22:30:00.735Z,141.24959
2023-10-18T22:45:02.786Z,121.47465
2023-10-18T23:00:04.903Z,106.40802
2023-10-18T23:15:06.862Z,42.37488
2023-10-18T23:30:08.819Z,29.19158
2023-10-18T23:45:11.507Z,28.24992
